Time;durP1;ratioP1;P1;durP2;ratioP2;P2;SDS_P1;SDS_P2;PMS_P1;PMS_P2;Temp;Humidity;BMP_temperature;BMP_pressure;BME280_temperature;BME280_humidity;BME280_pressure;Samples;Min_cycle;Max_cycle;Signal;HPM_P1;HPM_P2
2021/05/21 00:00:47;;;;;;;16.83;3.83;;;;;;;-142.75;57.44;76613.59;5004572;28;20280;-75
2021/05/21 00:03:12;;;;;;;20.48;3.58;;;;;;;-142.75;57.44;76621.47;4969326;28;20477;-74
2021/05/21 00:05:37;;;;;;;16.80;2.97;;;;;;;-142.75;57.41;76625.41;4969220;28;20483;-75
2021/05/21 00:08:03;;;;;;;24.77;3.80;;;;;;;-142.75;57.96;76639.19;5003091;28;20021;-75
2021/05/21 00:10:28;;;;;;;20.15;2.85;;;;;;;-142.75;58.24;76641.16;4979953;28;20793;-76
2021/05/21 00:12:54;;;;;;;22.27;4.63;;;;;;;-142.75;58.16;76631.31;5011851;28;20107;-76
2021/05/21 00:15:19;;;;;;;27.08;3.80;;;;;;;-142.75;58.13;76635.25;4989850;28;20391;-75
2021/05/21 00:17:45;;;;;;;15.73;2.90;;;;;;;-142.75;57.28;76639.19;4985428;28;20509;-75
2021/05/21 00:20:11;;;;;;;23.35;3.40;;;;;;;-142.75;57.56;76617.53;4986135;28;20097;-75
2021/05/21 00:22:36;;;;;;;21.17;3.50;;;;;;;-142.75;57.50;76645.09;4994391;28;20097;-75
2021/05/21 00:25:03;;;;;;;21.00;3.92;;;;;;;-142.75;56.17;76629.34;4995156;28;20480;-75
2021/05/21 00:27:28;;;;;;;28.02;3.50;;;;;;;-142.75;56.88;76645.09;5003844;28;20056;-76
2021/05/21 00:29:54;;;;;;;28.60;3.97;;;;;;;-142.75;56.86;76649.03;5012212;28;20061;-75
2021/05/21 00:32:19;;;;;;;16.95;3.42;;;;;;;-142.75;56.22;76649.03;5012058;28;20025;-76
2021/05/21 00:34:44;;;;;;;22.55;3.30;;;;;;;-142.75;55.39;76649.03;5012100;28;20041;-75
2021/05/21 00:37:09;;;;;;;26.00;3.50;;;;;;;-142.75;54.75;76660.84;4993952;28;20022;-76
2021/05/21 00:39:35;;;;;;;15.07;2.90;;;;;;;-142.75;55.29;76647.06;4992605;28;20693;-76
2021/05/21 00:42:00;;;;;;;27.60;3.57;;;;;;;-142.75;55.47;76672.66;4974936;28;20285;-76
2021/05/21 00:44:25;;;;;;;22.85;3.63;;;;;;;-142.75;55.60;76692.34;4992562;28;20034;-76
2021/05/21 00:46:50;;;;;;;17.80;2.75;;;;;;;-142.75;56.44;76684.47;4975531;28;20429;-75
2021/05/21 00:49:19;;;;;;;22.17;3.25;;;;;;;-142.75;56.04;76688.41;4976388;28;20022;-77
2021/05/21 00:51:45;;;;;;;23.38;3.20;;;;;;;-142.75;56.79;76688.41;4975744;28;20437;-76
2021/05/21 00:54:13;;;;;;;20.70;3.55;;;;;;;-142.75;56.65;76698.25;5003841;28;20014;-77
2021/05/21 00:56:38;;;;;;;20.30;3.00;;;;;;;-142.75;57.24;76704.16;5005924;28;20080;-79
2021/05/21 00:59:04;;;;;;;21.88;3.65;;;;;;;-142.75;58.60;76704.16;5004602;28;20029;-80
2021/05/21 01:01:31;;;;;;;20.17;3.33;;;;;;;-142.75;59.59;76710.06;4982901;28;20394;-80
2021/05/21 01:03:57;;;;;;;25.10;3.27;;;;;;;-142.75;60.36;76731.72;4984052;28;20479;-77
2021/05/21 01:06:22;;;;;;;25.90;3.75;;;;;;;-142.75;60.25;76747.47;5006590;28;20032;-78
2021/05/21 01:08:47;;;;;;;19.58;3.20;;;;;;;-142.75;60.67;76759.28;5003359;28;20061;-78
2021/05/21 01:11:12;;;;;;;22.73;4.10;;;;;;;-142.75;61.84;76755.34;4981385;28;20060;-78
2021/05/21 01:13:38;;;;;;;22.47;3.30;;;;;;;-142.75;62.65;76763.22;4983620;28;20025;-78
2021/05/21 01:16:04;;;;;;;16.65;2.90;;;;;;;-142.75;62.78;76759.28;5003778;28;20269;-80
2021/05/21 01:18:29;;;;;;;29.45;3.88;;;;;;;-142.75;62.82;76757.31;5000576;28;20479;-77
2021/05/21 01:20:54;;;;;;;21.25;3.15;;;;;;;-142.75;62.98;76755.34;5067557;28;20502;-79
2021/05/21 01:23:20;;;;;;;28.37;5.00;;;;;;;-142.75;62.08;76747.47;4978779;28;20034;-79
2021/05/21 01:25:45;;;;;;;29.13;3.57;;;;;;;-142.75;62.74;76735.66;4993746;28;20352;-77
2021/05/21 01:28:13;;;;;;;20.88;3.55;;;;;;;-142.75;62.98;76725.81;4981633;28;20654;-79
2021/05/21 01:30:39;;;;;;;24.20;3.37;;;;;;;-142.75;62.76;76721.88;5002466;28;20086;-79
2021/05/21 01:33:07;;;;;;;20.25;3.65;;;;;;;-142.75;62.53;76708.09;4979728;28;20113;-79
2021/05/21 01:35:32;;;;;;;30.70;3.87;;;;;;;-142.75;62.88;76723.84;4980465;28;20014;-78
2021/05/21 01:37:57;;;;;;;28.20;3.47;;;;;;;-142.75;63.21;76719.91;5002168;28;20026;-78
2021/05/21 01:40:24;;;;;;;25.50;3.47;;;;;;;-142.75;62.47;76719.91;4997301;28;20030;-78
2021/05/21 01:42:49;;;;;;;;;;;;;;;-142.75;62.77;76715.97;4997553;28;20277;-78
2021/05/21 01:45:15;;;;;;;20.20;3.80;;;;;;;-142.75;62.27;76708.09;4995330;28;19924;-78
2021/05/21 01:47:41;;;;;;;21.77;3.15;;;;;;;-142.75;62.26;76702.19;4996195;28;20063;-79
2021/05/21 01:50:10;;;;;;;25.23;4.13;;;;;;;-142.75;62.24;76708.09;4997302;28;20057;-78
2021/05/21 01:52:37;;;;;;;22.77;3.63;;;;;;;-142.75;62.67;76704.16;5004446;28;20105;-78
2021/05/21 01:55:03;;;;;;;23.37;4.50;;;;;;;-142.75;61.70;76696.28;4996603;28;20097;-79
2021/05/21 01:57:28;;;;;;;23.45;3.30;;;;;;;-142.75;61.96;76680.53;4998401;28;20108;-78
2021/05/21 01:59:54;;;;;;;32.40;4.20;;;;;;;-142.75;61.95;76692.34;4997922;28;20034;-80
2021/05/21 02:02:19;;;;;;;21.55;3.08;;;;;;;-142.75;62.31;76692.34;4979092;28;20022;-78
2021/05/21 02:04:44;;;;;;;28.67;5.05;;;;;;;-142.75;61.78;76698.25;4996306;28;20410;-79
2021/05/21 02:07:12;;;;;;;26.27;4.43;;;;;;;-142.75;62.07;76700.22;4999484;28;20079;-78
2021/05/21 02:09:47;;;;;;;18.40;3.93;;;;;;;-142.75;62.14;76700.22;4981872;28;20025;-77
2021/05/21 02:12:12;;;;;;;22.90;4.37;;;;;;;-142.75;62.60;76712.03;4999928;28;20033;-78
2021/05/21 02:14:38;;;;;;;17.45;3.30;;;;;;;-142.75;62.02;76723.84;5062503;28;20052;-78
2021/05/21 02:17:03;;;;;;;28.38;4.40;;;;;;;-142.75;62.18;76714.00;5003458;28;20082;-79
2021/05/21 02:19:28;;;;;;;21.90;3.85;;;;;;;-142.75;62.25;76723.84;4981583;28;20026;-80
2021/05/21 02:21:54;;;;;;;30.45;4.30;;;;;;;-142.75;62.90;76727.78;5001007;28;20025;-79
2021/05/21 02:24:19;;;;;;;20.73;3.55;;;;;;;-142.75;62.59;76723.84;4984599;28;20022;-78
2021/05/21 02:26:44;;;;;;;29.58;3.95;;;;;;;-142.75;63.02;76727.78;4973662;28;20030;-78
2021/05/21 02:29:10;;;;;;;23.77;4.30;;;;;;;-142.75;62.87;76731.72;4996601;28;20540;-81
2021/05/21 02:31:36;;;;;;;21.00;4.03;;;;;;;-142.75;63.12;76735.66;4999717;28;20030;-80
2021/05/21 02:34:01;;;;;;;27.65;4.05;;;;;;;-142.75;62.88;76737.63;4990120;28;20430;-79
2021/05/21 02:36:26;;;;;;;23.80;3.88;;;;;;;-142.75;62.98;76743.53;4980317;28;20056;-78
2021/05/21 02:38:51;;;;;;;32.33;3.55;;;;;;;-142.75;62.60;76743.53;4993753;28;20387;-78
2021/05/21 02:41:17;;;;;;;26.13;3.92;;;;;;;-142.75;63.36;76751.41;4999375;28;20038;-80
2021/05/21 02:43:42;;;;;;;25.33;3.47;;;;;;;-142.75;62.94;76743.53;4984746;28;20071;-77
2021/05/21 02:46:07;;;;;;;20.70;3.50;;;;;;;-142.75;62.98;76745.50;4996164;28;20029;-77
2021/05/21 02:48:33;;;;;;;19.08;3.47;;;;;;;-142.75;62.66;76747.47;4999956;28;20026;-77
2021/05/21 02:50:58;;;;;;;19.70;3.27;;;;;;;-142.75;62.90;76749.44;4984389;28;20064;-77
2021/05/21 02:53:23;;;;;;;23.35;3.90;;;;;;;-142.75;62.46;76753.38;4998594;28;20291;-78
2021/05/21 02:55:49;;;;;;;22.50;3.83;;;;;;;-142.75;62.42;76741.56;4976763;28;20023;-77
2021/05/21 02:58:14;;;;;;;24.92;3.85;;;;;;;-142.75;62.29;76739.59;5003047;28;20074;-77
2021/05/21 03:00:39;;;;;;;26.88;4.60;;;;;;;-142.75;62.14;76737.63;4985299;28;20021;-77
2021/05/21 03:03:05;;;;;;;24.20;4.13;;;;;;;-142.75;62.49;76751.41;4998038;28;20021;-77
2021/05/21 03:05:30;;;;;;;27.27;3.80;;;;;;;-142.75;62.58;76747.47;4986978;28;20041;-78
2021/05/21 03:07:57;;;;;;;26.70;3.13;;;;;;;-142.75;62.71;76741.56;4992961;28;20567;-79
2021/05/21 03:10:24;;;;;;;33.77;5.87;;;;;;;-142.75;62.47;76745.50;5009341;23;20478;-77
2021/05/21 03:12:49;;;;;;;24.73;3.47;;;;;;;-142.75;62.72;76739.59;4982815;28;20029;-78
2021/05/21 03:15:15;;;;;;;24.83;3.72;;;;;;;-142.75;63.18;76743.53;4999443;28;20022;-77
2021/05/21 03:17:40;;;;;;;27.85;4.97;;;;;;;-142.75;63.03;76739.59;5002223;28;20105;-77
2021/05/21 03:20:06;;;;;;;30.00;4.18;;;;;;;-142.75;62.99;76755.34;5001587;28;20095;-78
2021/05/21 03:22:32;;;;;;;;;;;;;;;-142.75;63.14;76751.41;4998477;28;20030;-76
2021/05/21 03:25:01;;;;;;;24.73;3.30;;;;;;;-142.75;63.23;76751.41;4999143;28;20639;-77
2021/05/21 03:27:26;;;;;;;28.97;4.27;;;;;;;-142.75;62.40;76727.78;4983941;28;20490;-79
2021/05/21 03:29:52;;;;;;;25.30;5.50;;;;;;;-142.75;62.64;76727.78;4996806;28;20098;-77
2021/05/21 03:32:17;;;;;;;24.95;3.78;;;;;;;-142.75;62.89;76723.84;4979513;28;20526;-76
2021/05/21 03:34:42;;;;;;;22.30;3.78;;;;;;;-142.75;63.13;76733.69;5000433;28;20125;-77
2021/05/21 03:37:08;;;;;;;22.60;3.35;;;;;;;-142.75;63.45;76735.66;4982802;28;20442;-77
2021/05/21 03:39:33;;;;;;;28.45;3.03;;;;;;;-142.75;63.54;76727.78;4982282;28;20053;-78
2021/05/21 03:41:59;;;;;;;21.95;3.33;;;;;;;-142.75;63.51;76735.66;4979323;28;20026;-77
2021/05/21 03:44:24;;;;;;;27.27;3.45;;;;;;;-142.75;63.71;76733.69;4985562;28;20329;-76
2021/05/21 03:46:50;;;;;;;21.95;3.53;;;;;;;-142.75;63.68;76721.88;4985098;28;20060;-77
2021/05/21 03:49:16;;;;;;;21.90;3.90;;;;;;;-142.75;63.84;76712.03;4986139;28;20479;-77
2021/05/21 03:51:41;;;;;;;;;;;;;;;-142.75;63.64;76710.06;4999986;28;20030;-77
2021/05/21 03:54:07;;;;;;;29.27;3.20;;;;;;;-142.75;63.88;76706.13;5006434;28;19914;-77
2021/05/21 03:56:33;;;;;;;30.80;3.78;;;;;;;-142.75;63.14;76704.16;4995838;28;20466;-76
2021/05/21 03:58:58;;;;;;;33.13;4.63;;;;;;;-142.75;62.89;76700.22;4982105;28;20057;-78
2021/05/21 04:01:26;;;;;;;20.30;3.55;;;;;;;-142.75;62.58;76690.38;4982344;28;20026;-76
2021/05/21 04:03:52;;;;;;;26.07;3.90;;;;;;;-142.75;61.99;76686.44;4978160;28;20033;-76
2021/05/21 04:06:17;;;;;;;22.63;3.58;;;;;;;-142.75;61.86;76680.53;4984706;28;20037;-77
2021/05/21 04:08:45;;;;;;;20.20;3.33;;;;;;;-142.75;61.81;76680.53;4999852;28;20021;-77
2021/05/21 04:11:10;;;;;;;30.53;3.93;;;;;;;-142.75;61.31;76670.69;4997934;28;20026;-77
2021/05/21 04:13:36;;;;;;;22.87;5.13;;;;;;;-142.75;61.23;76654.94;4982208;28;20458;-77
2021/05/21 04:16:01;;;;;;;22.98;3.47;;;;;;;-142.75;60.78;76645.09;4982755;28;20360;-79
2021/05/21 04:18:26;;;;;;;17.83;3.33;;;;;;;-142.75;60.86;76652.97;4980312;28;20086;-76
2021/05/21 04:20:51;;;;;;;24.43;4.33;;;;;;;-142.75;61.26;76654.94;4998294;28;20281;-78
2021/05/21 04:23:17;;;;;;;14.60;3.10;;;;;;;-142.75;60.98;76643.13;4992224;28;20296;-77
2021/05/21 04:25:42;;;;;;;20.02;3.90;;;;;;;-142.75;60.93;76635.25;4968376;28;20080;-77
2021/05/21 04:28:08;;;;;;;16.27;3.50;;;;;;;-142.75;60.73;76625.41;4975622;28;20030;-76
2021/05/21 04:30:33;;;;;;;20.30;3.65;;;;;;;-142.75;60.33;76625.41;4981699;28;20026;-77
2021/05/21 04:32:59;;;;;;;32.97;4.05;;;;;;;-142.75;60.19;76617.53;4983940;28;20483;-77
2021/05/21 04:35:24;;;;;;;21.67;3.58;;;;;;;-142.75;60.67;76615.56;5002071;28;20029;-76
2021/05/21 04:37:49;;;;;;;24.00;3.60;;;;;;;-142.75;60.69;76609.66;4981569;28;20021;-75
2021/05/21 04:40:15;;;;;;;23.00;3.00;;;;;;;-142.75;60.69;76601.78;4984539;28;20018;-78
2021/05/21 04:42:41;;;;;;;19.08;3.17;;;;;;;-142.75;59.60;76572.25;4983087;28;20030;-77
2021/05/21 04:45:07;;;;;;;24.67;3.13;;;;;;;-142.75;59.91;76560.44;4975517;28;20411;-78
2021/05/21 04:47:34;;;;;;;24.52;3.55;;;;;;;-142.75;59.78;76544.69;4976446;28;20037;-76
2021/05/21 04:49:59;;;;;;;21.27;3.73;;;;;;;-142.75;58.57;76530.91;5062825;28;20026;-76
2021/05/21 04:52:25;;;;;;;20.85;3.10;;;;;;;-142.75;58.04;76513.22;5000511;28;20037;-77
2021/05/21 04:54:50;;;;;;;23.50;3.53;;;;;;;-142.75;58.15;76507.31;5000742;28;20061;-77
2021/05/21 04:57:15;;;;;;;26.80;3.42;;;;;;;-142.75;56.37;76471.88;4980591;28;20034;-78
2021/05/21 04:59:41;;;;;;;23.73;3.08;;;;;;;-142.75;56.96;76465.97;5000039;28;20029;-77
2021/05/21 05:02:06;;;;;;;19.67;3.40;;;;;;;-142.75;56.32;76446.28;4984944;28;20087;-78
2021/05/21 05:04:32;;;;;;;12.68;3.05;;;;;;;-142.75;56.01;76438.41;4984877;28;20297;-77
2021/05/21 05:06:57;;;;;;;15.35;3.00;;;;;;;-142.75;56.26;76444.31;4988623;28;20025;-77
2021/05/21 05:09:23;;;;;;;17.67;3.33;;;;;;;-142.75;56.38;76430.53;4984843;28;20402;-80
2021/05/21 05:11:48;;;;;;;17.08;2.92;;;;;;;-142.75;55.87;76454.16;5005161;28;20437;-78
2021/05/21 05:14:14;;;;;;;23.35;2.97;;;;;;;-142.75;55.45;76454.16;5003321;28;20027;-79
2021/05/21 05:16:40;;;;;;;22.67;2.97;;;;;;;-142.75;55.75;76456.13;4985283;28;20031;-78
2021/05/21 05:19:06;;;;;;;15.35;2.97;;;;;;;-142.75;55.38;76438.41;4985369;28;20522;-79
2021/05/21 05:21:33;;;;;;;16.80;3.05;;;;;;;-142.75;55.57;76412.81;4985508;28;20030;-80
2021/05/21 05:24:01;;;;;;;26.33;3.58;;;;;;;-142.75;55.85;76401.00;4984482;28;20133;-79
2021/05/21 05:26:27;;;;;;;24.60;3.85;;;;;;;-142.75;55.32;76393.13;4983037;28;20037;-79
2021/05/21 05:28:52;;;;;;;20.48;3.88;;;;;;;-142.75;54.39;76365.56;5003520;28;20034;-80
2021/05/21 05:31:19;;;;;;;21.10;4.28;;;;;;;-142.75;53.54;76359.66;4984953;28;20026;-80
2021/05/21 05:33:45;;;;;;;20.02;3.30;;;;;;;-142.75;53.03;76355.72;5078200;28;20036;-80
2021/05/21 05:36:10;;;;;;;26.35;3.20;;;;;;;-142.75;53.68;76381.31;5005418;28;20437;-79
2021/05/21 05:38:36;;;;;;;22.33;3.80;;;;;;;-142.75;53.33;76389.19;5003266;28;20030;-79
2021/05/21 05:41:01;;;;;;;19.40;3.15;;;;;;;-142.75;54.29;76391.16;5006674;28;20292;-78
2021/05/21 05:43:27;;;;;;;21.15;4.35;;;;;;;-142.75;53.78;76399.03;4990890;28;21105;-80
2021/05/21 05:45:52;;;;;;;24.77;3.80;;;;;;;-142.75;53.94;76395.09;4982728;28;20113;-80
2021/05/21 05:48:19;;;;;;;19.50;3.20;;;;;;;-142.75;54.30;76393.13;4984074;28;20056;-78
2021/05/21 05:50:49;;;;;;;24.80;3.30;;;;;;;-142.75;53.91;76373.44;4985151;28;20033;-78
2021/05/21 05:53:15;;;;;;;25.45;4.22;;;;;;;-142.75;54.60;76401.00;4981699;28;20109;-77
2021/05/21 05:55:41;;;;;;;15.88;3.60;;;;;;;-142.75;54.07;76375.41;5005979;28;20099;-80
2021/05/21 05:58:07;;;;;;;19.42;3.05;;;;;;;-142.75;53.60;76363.59;4975462;28;20479;-77
2021/05/21 06:00:33;;;;;;;21.08;3.45;;;;;;;-142.75;53.97;76371.47;4985691;28;20026;-79
2021/05/21 06:03:08;;;;;;;20.70;3.60;;;;;;;-142.75;53.75;76357.69;5002406;28;20027;-78
2021/05/21 06:05:35;;;;;;;17.67;3.75;;;;;;;-142.75;53.22;76310.47;4984690;28;20030;-78
2021/05/21 06:08:02;;;;;;;25.00;3.83;;;;;;;-142.75;51.82;76253.38;5004928;28;20110;-78
2021/05/21 06:10:35;;;;;;;24.25;3.83;;;;;;;-142.75;51.86;76219.91;5003306;28;20045;-77
2021/05/21 06:13:05;;;;;;;25.08;3.58;;;;;;;-142.75;51.66;76178.59;4985148;28;20034;-79
2021/05/21 06:15:31;;;;;;;24.23;3.70;;;;;;;-142.75;51.15;76196.31;5006258;28;20025;-78
2021/05/21 06:18:01;;;;;;;19.90;3.42;;;;;;;-142.75;51.37;76231.72;4987380;28;20364;-78
2021/05/21 06:20:28;;;;;;;27.30;3.65;;;;;;;-142.75;51.50;76198.28;4986016;28;20483;-77
2021/05/21 06:22:53;;;;;;;20.83;3.28;;;;;;;-142.75;50.56;76145.13;4983583;28;20030;-80
2021/05/21 06:25:26;;;;;;;20.63;4.05;;;;;;;-142.75;49.67;76058.53;4984625;28;20105;-77
2021/05/21 06:27:52;;;;;;;17.23;3.67;;;;;;;-142.75;47.66;75995.53;4983132;28;20779;-78
2021/05/21 06:30:17;;;;;;;15.75;2.90;;;;;;;-142.75;47.47;76042.78;5005741;28;20080;-79
2021/05/21 06:32:44;;;;;;;22.85;3.58;;;;;;;-142.75;48.43;76082.13;5003194;28;20161;-77
2021/05/21 06:35:12;;;;;;;16.92;3.03;;;;;;;-142.75;48.87;76086.06;4983929;28;20018;-78
2021/05/21 06:37:38;;;;;;;21.30;3.58;;;;;;;-142.75;48.93;76093.94;4985110;28;20078;-79
2021/05/21 06:40:06;;;;;;;23.65;3.90;;;;;;;-142.75;49.32;76082.13;4982935;28;20457;-77
2021/05/21 06:42:32;;;;;;;17.52;3.83;;;;;;;-142.75;49.36;76093.94;5069140;28;20068;-78
2021/05/21 06:44:57;;;;;;;21.05;3.22;;;;;;;-142.75;49.81;76115.59;4984973;28;20053;-78
2021/05/21 06:47:23;;;;;;;10.18;2.90;;;;;;;-142.75;49.57;76072.31;4984606;28;20108;-78
2021/05/21 06:49:48;;;;;;;16.48;2.78;;;;;;;-142.75;49.60;76030.97;4981205;28;20026;-77
2021/05/21 06:52:15;;;;;;;18.70;3.13;;;;;;;-142.75;47.82;76019.16;4989362;28;20033;-79
2021/05/21 06:54:40;;;;;;;;;;;;;;;-142.75;48.21;75979.78;4978135;28;20022;-78
2021/05/21 06:57:06;;;;;;;21.42;3.90;;;;;;;-142.75;47.85;75903.03;4999110;28;20020;-77
2021/05/21 06:59:31;;;;;;;;;;;;;;;-142.75;45.95;75830.22;5003625;28;20030;-77
2021/05/21 07:01:56;;;;;;;14.95;2.65;;;;;;;-142.75;45.16;75765.25;4977540;28;19936;-79
2021/05/21 07:04:21;;;;;;;;;;;;;;;-142.75;45.41;75806.59;4998900;28;20029;-76
2021/05/21 07:06:47;;;;;;;16.65;3.00;;;;;;;-142.75;46.45;75836.13;4997878;28;19913;-76
2021/05/21 07:09:12;;;;;;;;;;;;;;;-142.75;46.89;75863.66;4996993;28;20063;-76
2021/05/21 07:11:37;;;;;;;15.50;3.10;;;;;;;-142.75;45.15;75781.00;5001802;28;20023;-78
2021/05/21 07:14:03;;;;;;;16.55;3.38;;;;;;;-142.75;44.63;75798.72;4981245;28;20029;-77
2021/05/21 07:16:29;;;;;;;;;;;;;;;-142.75;44.93;75869.56;4984696;28;20025;-76
2021/05/21 07:18:54;;;;;;;18.52;2.83;;;;;;;-142.75;46.38;75889.25;5002059;28;19966;-76
2021/05/21 07:21:22;;;;;;;;;;;;;;;-142.75;46.27;75932.56;4989082;28;20093;-80
2021/05/21 07:23:50;;;;;;;18.13;3.38;;;;;;;-142.75;46.83;76001.44;4985559;28;20358;-79
2021/05/21 07:26:15;;;;;;;17.45;3.53;;;;;;;-142.75;47.14;76038.84;5003489;28;20559;-77
2021/05/21 07:28:41;;;;;;;12.68;2.55;;;;;;;-142.75;47.97;76090.00;4982834;28;20030;-77
2021/05/21 07:31:06;;;;;;;18.17;3.20;;;;;;;-142.75;48.40;76103.78;4983829;28;20113;-78
2021/05/21 07:33:32;;;;;;;17.58;3.00;;;;;;;-142.75;48.41;76103.78;4999919;28;20112;-76
2021/05/21 07:36:00;;;;;;;17.77;3.10;;;;;;;-142.75;48.47;76082.13;4985381;28;20022;-78
2021/05/21 07:38:25;;;;;;;20.83;3.80;;;;;;;-142.75;49.38;76040.81;4997871;28;20026;-76
2021/05/21 07:40:50;;;;;;;15.73;2.75;;;;;;;-142.75;47.80;75981.75;4984278;28;20514;-77
2021/05/21 07:43:16;;;;;;;22.00;2.78;;;;;;;-142.75;49.26;76027.03;4985327;28;20029;-78
2021/05/21 07:45:41;;;;;;;20.17;2.75;;;;;;;-142.75;51.24;76097.88;4981926;28;20090;-79
2021/05/21 07:48:09;;;;;;;17.38;3.17;;;;;;;-142.75;50.82;76156.94;5002810;28;20022;-79
2021/05/21 07:50:38;;;;;;;19.73;3.38;;;;;;;-142.75;51.44;76172.69;4998722;28;20392;-78
2021/05/21 07:53:04;;;;;;;19.35;3.22;;;;;;;-142.75;52.29;76121.50;5005039;28;20042;-77
2021/05/21 07:55:29;;;;;;;17.13;2.78;;;;;;;-142.75;51.37;76066.41;4983377;28;20082;-76
2021/05/21 07:57:55;;;;;;;19.90;3.17;;;;;;;-142.75;50.46;76034.91;4981182;28;21396;-78
2021/05/21 08:00:20;;;;;;;17.67;3.22;;;;;;;-142.75;48.05;75877.44;4979945;28;20037;-78
2021/05/21 08:02:46;;;;;;;15.75;3.15;;;;;;;-142.75;46.67;75790.84;5001425;28;20033;-79
2021/05/21 08:05:11;;;;;;;;;;;;;;;-142.75;47.29;75834.16;4984410;28;20567;-79
2021/05/21 08:07:36;;;;;;;18.10;3.20;;;;;;;-142.75;48.27;75940.44;4983842;28;19914;-77
2021/05/21 08:10:05;;;;;;;;;;;;;;;-142.75;49.39;75946.34;5003270;28;20057;-79
2021/05/21 08:12:33;;;;;;;19.75;3.17;;;;;;;-142.75;48.95;75969.94;5003435;28;19984;-78
2021/05/21 08:14:58;;;;;;;16.48;2.97;;;;;;;-142.75;49.63;75973.88;4981374;28;20046;-78
2021/05/21 08:17:24;;;;;;;16.77;2.63;;;;;;;-142.75;48.52;75991.59;5003200;28;20034;-79
2021/05/21 08:19:50;;;;;;;20.80;3.33;;;;;;;-142.75;49.10;76015.22;5001812;28;20036;-79
2021/05/21 08:22:15;;;;;;;17.73;2.97;;;;;;;-142.75;50.41;76038.84;5001227;28;20030;-78
2021/05/21 08:24:43;;;;;;;15.55;2.88;;;;;;;-142.75;51.55;76101.81;5000940;28;20087;-78
2021/05/21 08:27:11;;;;;;;15.63;2.75;;;;;;;-142.75;51.33;76093.94;4984197;28;20034;-80
2021/05/21 08:29:37;;;;;;;12.00;2.33;;;;;;;-142.75;50.70;76027.03;5007097;28;20094;-79
2021/05/21 08:32:05;;;;;;;15.68;2.72;;;;;;;-142.75;50.13;75989.63;5005529;28;20109;-78
2021/05/21 08:34:30;;;;;;;17.50;2.88;;;;;;;-142.75;48.51;76019.16;4986195;28;20018;-78
2021/05/21 08:36:55;;;;;;;13.60;3.13;;;;;;;-142.75;50.33;76007.34;4988431;28;20014;-80
2021/05/21 08:39:21;;;;;;;12.43;2.80;;;;;;;-142.75;50.40;76001.44;4986002;28;20478;-80
2021/05/21 08:41:50;;;;;;;16.70;3.13;;;;;;;-142.75;49.54;75985.69;5003400;28;20022;-78
2021/05/21 08:44:18;;;;;;;15.90;2.95;;;;;;;-142.75;48.96;75997.50;5006394;28;20023;-79
2021/05/21 08:46:43;;;;;;;17.10;2.75;;;;;;;-142.75;48.81;76044.75;4985198;28;20041;-77
2021/05/21 08:49:09;;;;;;;23.90;3.50;;;;;;;-142.75;49.95;76103.78;4983371;28;20026;-78
2021/05/21 08:51:35;;;;;;;15.55;3.03;;;;;;;-142.75;50.17;76103.78;4986354;28;20045;-77
2021/05/21 08:54:00;;;;;;;18.33;2.95;;;;;;;-142.75;50.04;76097.88;5003200;28;20473;-78
2021/05/21 08:56:26;;;;;;;18.23;3.03;;;;;;;-142.75;50.56;76101.81;4988223;28;20022;-80
2021/05/21 08:58:52;;;;;;;17.85;3.20;;;;;;;-142.75;50.83;76091.97;5003744;28;20042;-79
2021/05/21 09:01:18;;;;;;;10.02;2.50;;;;;;;-142.75;50.08;76095.91;4984271;28;20032;-76
2021/05/21 09:03:45;;;;;;;16.55;2.88;;;;;;;-142.75;50.56;76115.59;5004612;28;20022;-78
2021/05/21 09:06:20;;;;;;;18.40;2.70;;;;;;;-142.75;50.94;76149.06;4999526;28;20061;-79
2021/05/21 09:08:49;;;;;;;14.35;2.92;;;;;;;-142.75;51.64;76156.94;5003056;28;20479;-78
2021/05/21 09:11:26;;;;;;;14.52;3.03;;;;;;;-142.75;51.14;76160.88;5002486;28;20033;-81
2021/05/21 09:14:15;;;;;;;19.05;3.03;;;;;;;-142.75;51.48;76164.81;5001704;28;20651;-78
2021/05/21 09:16:42;;;;;;;18.77;2.90;;;;;;;-142.75;51.46;76147.09;4984929;28;20445;-80
2021/05/21 09:19:18;;;;;;;13.18;2.80;;;;;;;-142.75;50.55;76050.66;4985439;28;20423;-79
2021/05/21 09:22:07;;;;;;;14.23;2.55;;;;;;;-142.75;49.15;75912.88;4988063;28;20497;-78
2021/05/21 09:24:41;;;;;;;16.33;2.95;;;;;;;-142.75;48.72;75794.78;4986352;28;20034;-79
2021/05/21 09:27:07;;;;;;;12.38;2.53;;;;;;;-142.75;44.86;75609.78;4984834;28;20030;-77
2021/05/21 09:29:33;;;;;;;16.83;2.40;;;;;;;-142.75;43.79;75621.59;5002955;23;20073;-78
2021/05/21 09:31:58;;;;;;;20.30;2.85;;;;;;;-142.75;43.66;75601.91;4983949;28;20054;-78
2021/05/21 09:34:31;;;;;;;;;;;;;;;-142.75;42.80;75533.03;4979878;28;20046;-77
2021/05/21 09:36:56;;;;;;;16.60;3.20;;;;;;;-142.75;41.49;75432.69;4980789;28;19914;-77
2021/05/21 09:39:21;;;;;;;;;;;;;;;-142.75;40.23;75320.50;4961568;28;20058;-77
2021/05/21 09:41:58;;;;;;;16.73;2.70;;;;;;;-142.75;40.30;75247.69;4959799;28;20427;-77
2021/05/21 09:44:25;;;;;;;20.95;3.45;;;;;;;-142.75;39.46;75206.38;4955633;28;20122;-77
2021/05/21 09:46:52;;;;;;;17.83;3.10;;;;;;;-142.75;38.29;75237.84;4959472;28;20129;-78
2021/05/21 09:49:38;;;;;;;16.52;2.70;;;;;;;-142.75;40.50;75456.28;4965822;28;20027;-78
2021/05/21 09:52:14;;;;;;;16.33;3.20;;;;;;;-142.75;41.45;75570.44;4967275;28;20072;-77
2021/05/21 09:54:50;;;;;;;16.67;2.95;;;;;;;-142.75;43.15;75721.97;4968581;28;20038;-78
2021/05/21 09:57:16;;;;;;;13.43;2.90;;;;;;;-142.75;43.88;75645.22;4965324;28;20023;-79
2021/05/21 09:59:46;;;;;;;;;;;;;;;-142.75;42.33;75432.69;4970046;28;20035;-79
2021/05/21 10:02:21;;;;;;;14.27;2.20;;;;;;;-142.75;40.78;75369.69;4963121;28;19967;-81
2021/05/21 10:04:47;;;;;;;13.25;2.72;;;;;;;-142.75;38.97;75298.84;4965580;28;20026;-77
2021/05/21 10:07:13;;;;;;;;;;;;;;;-142.75;39.25;75342.16;4963147;28;20030;-77
2021/05/21 10:09:39;;;;;;;11.95;2.20;;;;;;;-142.75;39.57;75342.16;4962221;28;20143;-78
2021/05/21 10:12:06;;;;;;;18.63;2.20;;;;;;;-142.75;39.77;75371.66;4965122;28;20035;-78
2021/05/21 10:14:32;;;;;;;11.85;2.53;;;;;;;-142.75;40.14;75332.31;4963789;28;20019;-77
2021/05/21 10:16:59;;;;;;;17.60;2.38;;;;;;;-142.75;38.43;75255.56;4963783;28;20104;-77
2021/05/21 10:19:26;;;;;;;14.52;2.10;;;;;;;-142.75;39.35;75251.63;4966240;28;20026;-77
2021/05/21 10:21:52;;;;;;;8.95;2.25;;;;;;;-142.75;40.06;75316.56;4955179;28;20023;-77
2021/05/21 10:24:19;;;;;;;10.82;2.60;;;;;;;-142.75;39.17;75269.34;4961542;28;20035;-76
2021/05/21 10:26:51;;;;;;;11.95;2.75;;;;;;;-142.75;39.36;75176.84;4956240;28;20033;-76
2021/05/21 10:29:23;;;;;;;15.27;2.53;;;;;;;-142.75;38.91;75153.25;4968465;28;20404;-77
2021/05/21 10:32:10;;;;;;;14.00;2.45;;;;;;;-142.75;37.12;75167.00;4958454;28;20452;-74
2021/05/21 10:34:43;;;;;;;9.93;2.47;;;;;;;-142.75;38.94;75261.47;4969614;28;20034;-76
2021/05/21 10:37:39;;;;;;;16.95;2.28;;;;;;;-142.75;38.74;75367.72;4968339;28;20022;-75
2021/05/21 10:40:07;;;;;;;10.25;2.42;;;;;;;-142.75;40.96;75481.88;4977156;28;20173;-75
2021/05/21 10:42:38;;;;;;;12.25;2.20;;;;;;;-142.75;39.45;75369.69;4969906;28;20083;-75
2021/05/21 10:45:24;;;;;;;13.40;2.30;;;;;;;-142.75;39.07;75332.31;4968610;28;20027;-75
2021/05/21 10:47:58;;;;;;;16.98;2.40;;;;;;;-142.75;39.17;75228.00;4970316;28;20038;-75
2021/05/21 10:50:32;;;;;;;10.57;2.15;;;;;;;-142.75;38.59;75176.84;4969338;28;20506;-75
2021/05/21 10:52:59;;;;;;;12.25;2.30;;;;;;;-142.75;37.85;75155.22;4968886;28;20095;-74
2021/05/21 10:55:41;;;;;;;10.57;1.50;;;;;;;-142.75;36.52;75218.19;4969393;28;20023;-74
2021/05/21 10:58:06;;;;;;;10.65;1.75;;;;;;;-142.75;36.61;75200.47;4967303;28;20031;-74
2021/05/21 11:00:33;;;;;;;16.50;1.98;;;;;;;-142.75;37.21;75204.41;4951810;28;20035;-76
2021/05/21 11:02:58;;;;;;;11.63;2.03;;;;;;;-142.75;36.79;75202.44;4950875;28;20055;-75
2021/05/21 11:05:32;;;;;;;10.63;1.45;;;;;;;-142.75;37.44;75231.94;4949135;28;20051;-75
2021/05/21 11:08:10;;;;;;;9.55;2.13;;;;;;;-142.75;37.88;75224.09;4956976;28;20027;-75
2021/05/21 11:10:35;;;;;;;12.95;2.22;;;;;;;-142.75;36.83;75224.09;4969386;28;20027;-74
2021/05/21 11:13:04;;;;;;;10.45;1.98;;;;;;;-142.75;37.16;75168.97;4969836;28;20406;-74